Airfield :







YOU CAN JOIN US ON...

 
LOGIN :

Register | Disclaimer

   EN    FR    IT 

 









Legend :    VFR   Marginal VFR   IFR   Intensive IFR   Very Intensive IFR
Visi :
Ceiling :
>= 8 km
>= 3000ft
5 to 8 km
1000 to 3000 ft
1500m to 5 km
500 to 1000 ft
800 to 1500m
200 to 500 ft
< 800m
< 200 ft
Symbols :   Thunderstorms  Fog  Heavy snow  Heavy precipitations  Wind > 20 kt






- Airport Elevation : 9 ft
- IATA code : SJU


TJSJ - Luis Munoz Marin Int.

CURRENT METAR :
  • 161056Z 00000KT 10SM FEW020 FEW040 26/24 A2996 RMK AO2 SLP144 T02610239

EXPIRED METARs :
  • 160956Z 00000KT 10SM FEW018 FEW035 26/23 A2995 RMK AO2 SLP141 VCSH NE T02610233
  • 160856Z 19003KT 10SM FEW030 FEW050 26/24 A2994 RMK AO2 SLP138 T02560239 55001

TAF TJSJ
Valid from the 16 at 06:00 until the 17 at 06:00 UTC


160527Z 1606/1706 VRB02KT P6SM VCSH FEW030 SCT060
FM161400 06008KT P6SM FEW035 SCT050
FM161600 05008KT P6SM VCTS SCT025CB BKN050
FM162200 VRB03KT P6SM VCSH SCT030 SCT060



MET'MAP, your aeronautical weather chart ! - Copyright ORBIFLY December 2007 - Disclaimer

ORBIFLY MET'MAP TEAM :

Programming & Development : Alexandra Zaïnal
Concept & Development : Baudouin d'Aumeries
Co-Development & Prog : Marc-Olivier Méhu
Technical & hardware support : Manuel Goepfert

Contact : metmap@orbifly.com




SOURCES & CREDITS :

   NOAA